Time;durP1;ratioP1;P1;durP2;ratioP2;P2;SDS_P1;SDS_P2;PMS_P1;PMS_P2;Temp;Humidity;BMP_temperature;BMP_pressure;BME280_temperature;BME280_humidity;BME280_pressure;Samples;Min_cycle;Max_cycle;Signal;HPM_P1;HPM_P2
2022/10/02 00:00:08;;;;;;;5.50;2.77;;;;;;;16.80;89.81;97948.84;1747836;80;20896;-71
2022/10/02 00:02:52;;;;;;;6.28;2.52;;;;;;;16.83;89.73;97941.64;1741603;81;20997;-71
2022/10/02 00:05:23;;;;;;;3.22;2.65;;;;;;;16.86;89.48;97926.91;1735716;81;21161;-71
2022/10/02 00:08:19;;;;;;;3.75;2.60;;;;;;;16.90;89.28;97918.63;1742145;81;20981;-71
2022/10/02 00:11:12;;;;;;;2.80;2.55;;;;;;;16.91;89.06;97916.23;1747734;80;20942;-71
2022/10/02 00:13:45;;;;;;;2.95;2.75;;;;;;;16.89;88.94;97899.56;1723449;81;21536;-71
2022/10/02 00:16:37;;;;;;;2.92;2.60;;;;;;;16.88;89.06;97904.11;1726224;81;21019;-70
2022/10/02 00:19:04;;;;;;;2.83;2.30;;;;;;;16.88;89.02;97897.92;1718134;81;21859;-70
2022/10/02 00:21:46;;;;;;;4.03;2.27;;;;;;;16.88;88.87;97901.95;1727218;81;20911;-71
2022/10/02 00:24:18;;;;;;;3.40;2.60;;;;;;;16.88;88.88;97908.14;1746799;80;20942;-70
2022/10/02 00:26:53;;;;;;;3.02;2.72;;;;;;;16.92;88.67;97904.44;1723820;81;20915;-70
2022/10/02 00:29:27;;;;;;;3.12;2.60;;;;;;;16.95;88.54;97905.26;1761798;80;20919;-70
2022/10/02 00:32:18;;;;;;;3.37;3.08;;;;;;;16.96;88.38;97905.55;1734560;81;21193;-71
2022/10/02 00:35:23;;;;;;;3.55;3.25;;;;;;;16.96;88.36;97905.03;1716748;82;20898;-70
2022/10/02 00:38:01;;;;;;;3.62;3.33;;;;;;;16.97;88.28;97887.83;1734470;82;20914;-71
2022/10/02 00:40:55;;;;;;;4.85;4.45;;;;;;;16.97;88.28;97883.02;1715791;82;20982;-71
2022/10/02 00:43:45;;;;;;;3.80;3.50;;;;;;;17.00;88.25;97878.46;1721778;82;21048;-71
2022/10/02 00:46:39;;;;;;;4.17;3.83;;;;;;;17.02;88.10;97867.78;1723730;82;21409;-70
2022/10/02 00:49:23;;;;;;;4.92;4.17;;;;;;;17.00;88.12;97863.69;1731968;82;20981;-70
2022/10/02 00:52:12;;;;;;;4.37;3.92;;;;;;;17.01;88.15;97866.67;1721214;82;20950;-71
2022/10/02 00:55:17;;;;;;;4.08;3.67;;;;;;;17.01;87.98;97859.43;1722795;82;21044;-70
2022/10/02 00:58:03;;;;;;;5.03;3.55;;;;;;;16.98;87.91;97853.20;1738355;82;20883;-71
2022/10/02 01:00:30;;;;;;;;;;;;;;;16.97;87.79;97850.78;1722905;82;21173;-70
2022/10/02 01:03:26;;;;;;;5.33;3.40;;;;;;;16.94;87.73;97845.38;1722274;82;20124;-71
2022/10/02 01:05:53;;;;;;;5.37;3.03;;;;;;;16.94;87.65;97844.56;1714618;82;20946;-71
2022/10/02 01:08:20;;;;;;;3.65;3.35;;;;;;;16.92;87.64;97850.17;1721481;82;21191;-71
2022/10/02 01:10:47;;;;;;;4.72;3.52;;;;;;;16.91;87.63;97849.91;1714130;82;20906;-71
2022/10/02 01:13:13;;;;;;;4.45;3.30;;;;;;;16.91;87.65;97848.56;1722378;82;21254;-71
2022/10/02 01:15:51;;;;;;;3.80;3.20;;;;;;;16.89;87.69;97850.69;1722535;82;21578;-71
2022/10/02 01:18:18;;;;;;;4.10;2.98;;;;;;;16.87;87.60;97852.79;1733873;82;20919;-70
2022/10/02 01:20:49;;;;;;;3.50;3.20;;;;;;;16.84;87.61;97858.66;1724580;82;20954;-70
2022/10/02 01:23:39;;;;;;;3.15;2.87;;;;;;;16.81;87.68;97863.20;1722824;82;21036;-71
2022/10/02 01:26:06;;;;;;;4.87;3.33;;;;;;;16.82;87.75;97858.09;1722869;82;22454;-71
2022/10/02 01:28:33;;;;;;;3.75;3.45;;;;;;;16.80;87.74;97857.55;1726769;81;20907;-71
2022/10/02 01:31:14;;;;;;;3.22;2.92;;;;;;;16.78;87.85;97856.98;1735651;81;20982;-71
2022/10/02 01:33:42;;;;;;;3.37;3.15;;;;;;;16.76;87.99;97855.09;1765151;80;21508;-71
2022/10/02 01:36:11;;;;;;;3.85;3.47;;;;;;;16.74;88.12;97850.47;1726098;81;20891;-71
2022/10/02 01:38:39;;;;;;;3.65;3.35;;;;;;;16.75;88.23;97858.82;1700039;83;21178;-70
2022/10/02 01:41:06;;;;;;;4.45;3.20;;;;;;;16.77;88.20;97858.03;1718929;81;21575;-70
2022/10/02 01:43:34;;;;;;;3.40;3.20;;;;;;;16.79;88.15;97863.96;1710684;81;20923;-71
2022/10/02 01:46:23;;;;;;;4.03;3.60;;;;;;;16.79;88.17;97873.36;1715970;81;20984;-70
2022/10/02 01:49:05;;;;;;;3.72;3.35;;;;;;;16.80;88.13;97882.23;1728331;81;21037;-71
2022/10/02 01:52:10;;;;;;;6.42;3.55;;;;;;;16.76;88.10;97877.91;1728298;81;22138;-71
2022/10/02 01:55:03;;;;;;;5.92;3.95;;;;;;;16.76;88.05;97885.97;1750983;80;21536;-71
2022/10/02 01:57:47;;;;;;;6.65;3.80;;;;;;;16.75;88.00;97881.64;1739023;81;20863;-71
2022/10/02 02:00:23;;;;;;;5.10;3.40;;;;;;;16.71;87.96;97888.58;1769379;80;21007;-70
2022/10/02 02:03:08;;;;;;;5.62;3.40;;;;;;;16.68;87.88;97886.91;1733496;81;20979;-70
2022/10/02 02:06:00;;;;;;;4.28;3.62;;;;;;;16.63;87.77;97892.48;1739558;80;21233;-70
2022/10/02 02:08:50;;;;;;;4.08;3.42;;;;;;;16.63;87.74;97890.34;1747418;81;20890;-71
2022/10/02 02:11:19;;;;;;;5.40;2.98;;;;;;;16.63;87.60;97889.79;1765706;80;20915;-71
2022/10/02 02:14:12;;;;;;;3.17;2.58;;;;;;;16.66;87.21;97889.83;1764475;80;21010;-71
2022/10/02 02:16:51;;;;;;;3.47;2.50;;;;;;;16.65;87.06;97892.25;1721027;81;21015;-71
2022/10/02 02:19:43;;;;;;;3.08;2.35;;;;;;;16.63;87.08;97893.03;1708888;82;21249;-71
2022/10/02 02:22:23;;;;;;;5.55;2.98;;;;;;;16.60;87.04;97890.31;1672767;84;20929;-71
2022/10/02 02:24:59;;;;;;;3.92;2.85;;;;;;;16.54;86.94;97890.47;1739934;81;20997;-71
2022/10/02 02:27:28;;;;;;;;;;;;;;;16.52;86.87;97888.04;1724567;81;21020;-71
2022/10/02 02:29:59;;;;;;;2.62;2.08;;;;;;;16.49;86.73;97898.41;1722437;81;20125;-71
2022/10/02 02:32:29;;;;;;;3.37;1.90;;;;;;;16.45;86.59;97889.24;1735277;81;21132;-71
2022/10/02 02:35:06;;;;;;;3.47;2.05;;;;;;;16.38;86.59;97897.45;1721365;81;20946;-71
2022/10/02 02:37:34;;;;;;;1.15;1.07;;;;;;;16.35;86.48;97889.06;1721942;81;21466;-70
2022/10/02 02:40:18;;;;;;;1.60;1.20;;;;;;;16.31;86.54;97891.44;1721946;81;20932;-71
2022/10/02 02:43:13;;;;;;;2.35;1.17;;;;;;;16.31;86.46;97886.08;1721247;81;20997;-70
2022/10/02 02:45:56;;;;;;;2.00;1.20;;;;;;;16.31;86.50;97891.97;1720980;81;21189;-70
2022/10/02 02:48:36;;;;;;;1.07;1.00;;;;;;;16.28;86.48;97883.88;1671931;83;21013;-70
2022/10/02 02:51:07;;;;;;;1.50;0.82;;;;;;;16.27;86.46;97888.95;1712142;80;21484;-69
2022/10/02 02:53:37;;;;;;;1.57;0.82;;;;;;;16.25;86.48;97883.54;1776025;80;21405;-72
2022/10/02 02:56:04;;;;;;;1.70;1.02;;;;;;;16.24;86.42;97885.95;1761573;80;20919;-71
2022/10/02 02:58:46;;;;;;;1.22;0.75;;;;;;;16.21;86.46;97880.55;1731761;81;21552;-71
2022/10/02 03:01:12;;;;;;;0.98;0.80;;;;;;;16.22;86.44;97882.69;1754055;81;21475;-72
2022/10/02 03:03:39;;;;;;;0.95;0.70;;;;;;;16.20;86.36;97881.59;1731944;81;20979;-72
2022/10/02 03:06:25;;;;;;;0.60;0.60;;;;;;;16.18;86.29;97874.85;1739823;81;21058;-72
2022/10/02 03:08:51;;;;;;;3.35;0.75;;;;;;;16.19;86.16;97876.48;1739910;81;21007;-71
2022/10/02 03:11:41;;;;;;;2.17;0.80;;;;;;;16.17;86.13;97872.69;1739907;81;21166;-72
2022/10/02 03:14:58;;;;;;;1.10;0.50;;;;;;;16.17;86.14;97871.88;1739946;81;20981;-72
2022/10/02 03:17:33;;;;;;;2.85;0.50;;;;;;;16.17;86.13;97874.03;1739724;81;20895;-71
2022/10/02 03:20:40;;;;;;;0.50;0.40;;;;;;;16.15;85.92;97865.95;1733867;81;21132;-71
2022/10/02 03:23:48;;;;;;;0.30;0.30;;;;;;;16.13;85.71;97867.55;1732331;81;21035;-71
2022/10/02 03:26:26;;;;;;;0.98;0.20;;;;;;;16.08;85.50;97864.78;1739612;81;21155;-72
2022/10/02 03:28:55;;;;;;;0.30;0.30;;;;;;;16.02;85.17;97869.25;1771974;80;20962;-72
2022/10/02 03:31:21;;;;;;;0.10;0.10;;;;;;;15.95;84.75;97869.95;1724236;81;21021;-72
2022/10/02 03:33:49;;;;;;;0.10;0.10;;;;;;;15.91;84.55;97870.65;1768435;80;20934;-71
2022/10/02 03:36:16;;;;;;;2.22;0.10;;;;;;;15.85;84.33;97883.70;1717485;82;20926;-72
2022/10/02 03:38:44;;;;;;;0.28;0.20;;;;;;;15.81;84.26;97882.55;1723301;81;21263;-72
2022/10/02 03:41:10;;;;;;;0.45;0.30;;;;;;;15.80;84.16;97888.43;1721942;81;20973;-71
2022/10/02 03:43:37;;;;;;;0.20;0.20;;;;;;;15.78;83.99;97882.50;1727297;81;21003;-71
2022/10/02 03:46:03;;;;;;;3.12;0.17;;;;;;;15.77;83.85;97884.89;1740454;81;21417;-71
2022/10/02 03:48:29;;;;;;;0.40;0.10;;;;;;;15.73;83.94;97888.30;1724931;81;20974;-71
2022/10/02 03:50:55;;;;;;;0.25;0.20;;;;;;;15.69;83.97;97887.98;1722311;81;21235;-70
2022/10/02 03:53:26;;;;;;;0.30;0.10;;;;;;;15.67;83.86;97891.41;1764149;80;20930;-71
2022/10/02 03:56:19;;;;;;;1.17;0.17;;;;;;;15.66;83.86;97891.14;1733626;80;21460;-71
2022/10/02 03:58:47;;;;;;;1.27;0.20;;;;;;;15.63;83.58;97895.64;1766074;80;21093;-70
2022/10/02 04:01:27;;;;;;;1.22;0.10;;;;;;;15.58;83.48;97889.37;1736456;81;20886;-72
2022/10/02 04:04:03;;;;;;;0.17;0.10;;;;;;;15.55;83.16;97895.20;1688302;83;22137;-72
2022/10/02 04:06:45;;;;;;;0.72;0.17;;;;;;;15.49;83.07;97902.33;1707117;83;20925;-72
2022/10/02 04:09:42;;;;;;;0.20;0.20;;;;;;;15.44;83.17;97915.09;1718814;81;20898;-72
2022/10/02 04:12:15;;;;;;;0.65;0.15;;;;;;;15.41;83.17;97911.53;1741828;80;20942;-71
2022/10/02 04:14:47;;;;;;;1.02;0.10;;;;;;;15.37;83.14;97923.80;1756393;79;20875;-71
2022/10/02 04:17:47;;;;;;;0.13;0.05;;;;;;;15.36;83.17;97926.70;1757908;80;21076;-71
2022/10/02 04:20:19;;;;;;;0.20;0.10;;;;;;;15.36;83.21;97936.08;1763225;80;20906;-72
2022/10/02 04:22:54;;;;;;;0.20;0.10;;;;;;;15.32;83.13;97937.61;1733450;81;20988;-71
2022/10/02 04:25:25;;;;;;;0.10;0.10;;;;;;;15.29;83.06;97946.94;1733557;81;20953;-71
2022/10/02 04:28:03;;;;;;;0.10;0.10;;;;;;;15.28;83.00;97937.78;1716667;82;20973;-72
2022/10/02 04:30:31;;;;;;;0.42;0.23;;;;;;;15.25;82.75;97953.80;1715455;81;21983;-72
2022/10/02 04:33:14;;;;;;;0.30;0.20;;;;;;;15.22;82.59;97952.14;1722084;81;20977;-72
2022/10/02 04:36:07;;;;;;;2.17;0.50;;;;;;;15.19;82.48;97958.79;1708952;81;20871;-72
2022/10/02 04:39:00;;;;;;;0.50;0.50;;;;;;;15.15;82.21;97962.15;1713893;81;20940;-72
2022/10/02 04:42:02;;;;;;;0.50;0.50;;;;;;;15.11;82.23;97966.36;1739767;81;21037;-72
2022/10/02 04:44:51;;;;;;;1.25;1.00;;;;;;;15.05;82.06;97960.08;1726020;81;21100;-73
2022/10/02 04:47:30;;;;;;;1.20;1.10;;;;;;;14.99;82.15;97966.91;1721318;81;21489;-72
2022/10/02 04:50:31;;;;;;;2.47;2.27;;;;;;;14.94;82.07;97979.64;1721727;81;21067;-72
2022/10/02 04:53:24;;;;;;;4.67;3.27;;;;;;;14.90;81.84;97984.37;1734282;81;21583;-72
2022/10/02 04:56:06;;;;;;;4.95;4.33;;;;;;;14.83;81.80;97986.63;1720792;81;21010;-75
2022/10/02 04:59:05;;;;;;;6.05;4.28;;;;;;;14.79;81.78;97989.49;1722200;81;21905;-72
2022/10/02 05:01:56;;;;;;;2.45;2.25;;;;;;;14.77;81.95;98002.30;1719970;81;20950;-73
2022/10/02 05:04:55;;;;;;;5.53;2.77;;;;;;;14.78;81.95;98007.14;1726743;81;20989;-72
2022/10/02 05:07:48;;;;;;;3.40;2.75;;;;;;;14.73;81.97;98018.52;1758600;80;20922;-73
2022/10/02 05:10:57;;;;;;;4.30;3.50;;;;;;;14.73;81.83;98023.08;1732493;81;20951;-73
2022/10/02 05:13:48;;;;;;;3.27;3.02;;;;;;;14.67;81.43;98026.67;1755809;81;21160;-74
2022/10/02 05:16:33;;;;;;;3.47;3.15;;;;;;;14.61;81.25;98028.41;1760311;80;21329;-73
2022/10/02 05:19:35;;;;;;;2.83;2.55;;;;;;;14.59;81.22;98037.72;1730551;81;21535;-72
2022/10/02 05:22:38;;;;;;;2.58;2.37;;;;;;;14.58;81.07;98035.55;1691797;82;20950;-72
2022/10/02 05:25:22;;;;;;;2.77;2.35;;;;;;;14.53;80.99;98042.13;1733678;81;20950;-71
2022/10/02 05:28:16;;;;;;;3.30;3.00;;;;;;;14.50;81.14;98043.91;1734320;81;21149;-71
2022/10/02 05:30:51;;;;;;;2.40;2.20;;;;;;;14.48;81.37;98048.69;1767106;80;21472;-71
2022/10/02 05:33:30;;;;;;;4.10;2.60;;;;;;;14.52;81.55;98051.73;1747078;80;20973;-71
2022/10/02 05:36:06;;;;;;;2.70;2.50;;;;;;;14.55;81.65;98046.71;1748673;80;20938;-72
2022/10/02 05:38:47;;;;;;;2.83;2.35;;;;;;;14.56;81.54;98049.70;1719199;81;20884;-71
2022/10/02 05:41:36;;;;;;;2.80;2.60;;;;;;;14.55;81.46;98046.71;1743646;80;21977;-71
2022/10/02 05:44:44;;;;;;;2.90;2.50;;;;;;;14.56;81.48;98043.52;1759301;80;20911;-72
2022/10/02 05:47:16;;;;;;;2.60;2.40;;;;;;;14.58;81.43;98043.58;1757303;80;20990;-72
2022/10/02 05:49:51;;;;;;;3.20;2.90;;;;;;;14.58;81.44;98055.63;1759235;80;20908;-71
2022/10/02 05:52:35;;;;;;;2.80;2.60;;;;;;;14.59;81.29;98056.45;1758626;80;21002;-73
2022/10/02 05:55:13;;;;;;;2.75;2.55;;;;;;;14.62;81.27;98064.84;1750982;80;22089;-72
2022/10/02 05:57:51;;;;;;;3.33;2.70;;;;;;;14.65;81.26;98067.03;1759047;80;20935;-72
2022/10/02 06:00:41;;;;;;;2.67;2.45;;;;;;;14.68;81.14;98063.91;1759056;80;21560;-72
2022/10/02 06:03:43;;;;;;;4.83;2.70;;;;;;;14.69;80.81;98059.38;1759322;80;20940;-73
2022/10/02 06:06:17;;;;;;;4.90;2.70;;;;;;;14.71;80.70;98060.77;1759129;80;20975;-73
2022/10/02 06:08:50;;;;;;;3.27;2.67;;;;;;;14.75;80.47;98061.13;1756476;80;21159;-71
2022/10/02 06:11:42;;;;;;;2.67;2.47;;;;;;;14.77;80.44;98063.05;1759180;80;21018;-71
2022/10/02 06:14:20;;;;;;;2.67;2.47;;;;;;;14.78;80.47;98060.13;1756319;80;21064;-72
2022/10/02 06:17:12;;;;;;;2.47;2.27;;;;;;;14.86;80.45;98068.89;1759165;80;21572;-72
2022/10/02 06:19:58;;;;;;;2.30;2.10;;;;;;;14.93;80.35;98070.41;1759202;80;20975;-73
2022/10/02 06:22:27;;;;;;;;;;;;;;;15.08;80.06;98077.97;1761719;80;21260;-72
2022/10/02 06:24:59;;;;;;;2.60;2.40;;;;;;;15.12;79.57;98082.63;1758144;80;20114;-71
2022/10/02 06:27:54;;;;;;;3.00;2.80;;;;;;;15.18;79.27;98080.88;1759258;80;20961;-73
2022/10/02 06:30:21;;;;;;;2.83;2.62;;;;;;;15.16;78.79;98075.77;1748124;81;20976;-72
2022/10/02 06:33:21;;;;;;;3.08;2.85;;;;;;;15.13;78.51;98087.47;1747923;81;21531;-72
2022/10/02 06:36:08;;;;;;;3.40;3.10;;;;;;;15.09;78.24;98095.69;1747897;81;21132;-73
2022/10/02 06:39:07;;;;;;;3.50;3.20;;;;;;;15.05;78.21;98087.29;1747846;81;21000;-72
2022/10/02 06:41:48;;;;;;;4.37;3.58;;;;;;;15.05;78.24;98093.16;1746050;81;20896;-72
2022/10/02 06:44:26;;;;;;;3.52;3.30;;;;;;;15.10;78.16;98093.28;1747827;81;20984;-72
2022/10/02 06:47:34;;;;;;;3.85;3.55;;;;;;;15.17;78.26;98097.47;1747866;81;20983;-71
2022/10/02 06:50:10;;;;;;;3.55;3.25;;;;;;;15.26;78.13;98092.59;1708472;81;21876;-72
2022/10/02 06:52:51;;;;;;;11.35;3.37;;;;;;;15.35;77.54;98097.39;1747698;81;20971;-71
2022/10/02 06:55:29;;;;;;;3.80;3.50;;;;;;;15.42;77.08;98097.25;1747749;81;21004;-71
2022/10/02 06:58:18;;;;;;;3.47;3.27;;;;;;;15.43;76.78;98097.00;1743442;81;21570;-72
2022/10/02 07:01:09;;;;;;;3.50;3.20;;;;;;;15.43;76.49;98098.34;1747948;81;20914;-72
2022/10/02 07:04:06;;;;;;;3.37;3.00;;;;;;;15.39;76.30;98095.86;1747928;81;21151;-72
2022/10/02 07:06:43;;;;;;;3.45;3.15;;;;;;;15.35;76.03;98100.58;1747881;81;20885;-72
2022/10/02 07:09:27;;;;;;;3.30;3.00;;;;;;;15.29;76.05;98106.34;1742026;81;21480;-72
2022/10/02 07:12:24;;;;;;;3.50;3.25;;;;;;;15.22;76.24;98108.34;1745320;81;21544;-72
2022/10/02 07:15:31;;;;;;;3.02;2.83;;;;;;;15.20;76.37;98116.31;1747883;81;21018;-72
2022/10/02 07:18:24;;;;;;;3.62;3.33;;;;;;;15.19;76.58;98114.67;1734250;81;21046;-71
2022/10/02 07:21:22;;;;;;;3.05;2.85;;;;;;;15.19;76.85;98124.87;1748039;81;20987;-72
2022/10/02 07:24:20;;;;;;;4.65;2.60;;;;;;;15.24;77.04;98112.11;1746406;81;21468;-72
2022/10/02 07:27:17;;;;;;;2.90;2.70;;;;;;;15.31;76.68;98119.50;1734147;81;21017;-72
2022/10/02 07:30:05;;;;;;;4.22;2.55;;;;;;;15.37;76.38;98111.88;1754557;80;21056;-72
2022/10/02 07:32:58;;;;;;;2.90;2.70;;;;;;;15.46;76.34;98110.48;1759102;80;21981;-73
2022/10/02 07:35:33;;;;;;;2.80;2.60;;;;;;;15.49;76.01;98111.37;1759078;80;21014;-73
2022/10/02 07:38:23;;;;;;;3.27;2.30;;;;;;;15.51;75.86;98115.17;1751678;80;20979;-73
2022/10/02 07:41:04;;;;;;;2.85;2.05;;;;;;;15.56;75.59;98112.08;1758180;80;21536;-72
2022/10/02 07:43:40;;;;;;;2.58;2.37;;;;;;;15.53;75.04;98113.06;1759167;80;20892;-73
2022/10/02 07:46:37;;;;;;;2.55;2.35;;;;;;;15.57;74.81;98110.19;1756474;80;21615;-71
2022/10/02 07:49:26;;;;;;;3.20;2.85;;;;;;;15.59;74.78;98110.80;1745079;80;20839;-72
2022/10/02 07:52:22;;;;;;;2.58;2.37;;;;;;;15.67;74.64;98115.25;1759234;80;20945;-71
2022/10/02 07:55:03;;;;;;;3.17;2.98;;;;;;;15.83;74.26;98109.17;1757291;80;20937;-72
2022/10/02 07:57:38;;;;;;;2.17;2.08;;;;;;;16.11;74.13;98115.64;1759510;80;21602;-72
2022/10/02 08:00:15;;;;;;;4.20;3.12;;;;;;;16.34;73.61;98104.82;1734058;80;21134;-72
2022/10/02 08:02:47;;;;;;;11.22;5.42;;;;;;;16.58;72.73;98107.17;1751453;80;20880;-72
2022/10/02 08:05:23;;;;;;;3.72;2.62;;;;;;;16.71;71.91;98110.63;1748437;80;20971;-73
2022/10/02 08:07:53;;;;;;;4.22;2.77;;;;;;;16.76;71.54;98114.73;1726123;82;21511;-73
2022/10/02 08:10:24;;;;;;;3.12;2.92;;;;;;;16.81;71.10;98117.52;1732007;81;21448;-73
2022/10/02 08:13:06;;;;;;;2.95;2.75;;;;;;;16.82;70.69;98110.55;1737372;81;21288;-73
2022/10/02 08:15:35;;;;;;;2.75;2.55;;;;;;;16.82;70.17;98115.09;1731107;81;20942;-74
2022/10/02 08:18:28;;;;;;;5.65;3.05;;;;;;;16.79;69.58;98110.23;1740575;81;20888;-73
2022/10/02 08:20:55;;;;;;;3.42;3.12;;;;;;;16.74;69.03;98114.97;1776303;80;21006;-72
2022/10/02 08:23:28;;;;;;;3.85;3.08;;;;;;;16.61;68.65;98114.75;1778139;80;20985;-73
2022/10/02 08:26:28;;;;;;;2.83;2.62;;;;;;;16.51;68.73;98121.25;1767414;80;21139;-73
2022/10/02 08:29:19;;;;;;;4.17;3.02;;;;;;;16.39;68.47;98123.70;1747453;80;21058;-73
2022/10/02 08:31:50;;;;;;;3.22;3.02;;;;;;;16.23;68.94;98118.56;1753738;80;21018;-73
2022/10/02 08:34:19;;;;;;;3.37;2.98;;;;;;;16.16;69.25;98125.13;1727057;81;20972;-73
2022/10/02 08:37:15;;;;;;;4.85;3.37;;;;;;;16.12;69.30;98120.75;1738281;81;20883;-71
2022/10/02 08:40:21;;;;;;;3.30;3.00;;;;;;;16.11;69.28;98123.69;1726886;81;21505;-74
2022/10/02 08:43:03;;;;;;;3.00;2.70;;;;;;;16.04;68.91;98127.31;1747898;81;21005;-73
2022/10/02 08:45:53;;;;;;;3.00;2.80;;;;;;;15.92;68.54;98122.52;1747989;81;21510;-73
2022/10/02 08:49:13;;;;;;;4.17;2.83;;;;;;;15.90;68.80;98131.30;1739641;81;20895;-73
2022/10/02 08:52:04;;;;;;;3.10;2.80;;;;;;;15.95;69.01;98131.95;1739413;81;20981;-73
2022/10/02 08:54:57;;;;;;;3.47;3.17;;;;;;;16.15;68.77;98126.98;1744248;81;21132;-73
2022/10/02 08:57:58;;;;;;;5.37;3.62;;;;;;;16.41;68.23;98141.71;1740180;81;20948;-73
2022/10/02 09:00:43;;;;;;;5.75;3.85;;;;;;;16.71;67.61;98130.77;1747901;81;21555;-73
2022/10/02 09:03:51;;;;;;;3.17;2.95;;;;;;;17.00;66.99;98126.95;1686118;82;20988;-72
2022/10/02 09:06:55;;;;;;;2.75;2.55;;;;;;;17.14;66.27;98135.80;1717629;81;21010;-74
2022/10/02 09:09:48;;;;;;;3.02;2.62;;;;;;;17.24;65.61;98136.48;1748148;81;21201;-72
2022/10/02 09:12:30;;;;;;;2.60;2.40;;;;;;;17.14;64.88;98139.84;1747110;81;20859;-72
2022/10/02 09:15:14;;;;;;;3.27;2.98;;;;;;;16.97;64.80;98141.68;1747980;81;21022;-73
2022/10/02 09:17:47;;;;;;;5.08;3.12;;;;;;;16.84;65.27;98145.23;1747140;81;21072;-73
2022/10/02 09:20:22;;;;;;;3.50;3.20;;;;;;;16.65;65.83;98148.65;1741730;81;21422;-73
2022/10/02 09:23:29;;;;;;;6.10;2.98;;;;;;;16.48;66.13;98154.45;1747877;81;21791;-74
2022/10/02 09:26:17;;;;;;;3.85;2.83;;;;;;;16.30;66.54;98144.73;1748282;81;20907;-72
2022/10/02 09:29:18;;;;;;;2.52;2.33;;;;;;;16.11;67.05;98158.05;1748029;81;20932;-73
2022/10/02 09:32:23;;;;;;;4.72;2.75;;;;;;;15.98;67.75;98159.09;1748044;81;20876;-71
2022/10/02 09:35:27;;;;;;;3.35;2.55;;;;;;;15.85;68.51;98143.26;1748019;81;20943;-72
2022/10/02 09:38:05;;;;;;;4.47;2.80;;;;;;;15.70;69.73;98155.52;1747442;81;21956;-72
2022/10/02 09:41:12;;;;;;;3.12;2.87;;;;;;;15.57;70.10;98156.58;1748015;81;20877;-72
2022/10/02 09:43:52;;;;;;;2.90;2.70;;;;;;;15.48;70.48;98158.00;1743242;81;21489;-72
2022/10/02 09:46:51;;;;;;;3.87;2.58;;;;;;;15.40;71.27;98151.09;1748018;81;20930;-72
2022/10/02 09:49:59;;;;;;;3.02;2.60;;;;;;;15.32;72.31;98160.81;1745443;81;20987;-73
2022/10/02 09:53:23;;;;;;;3.37;3.08;;;;;;;15.25;72.58;98165.45;1748016;81;21080;-73
2022/10/02 09:56:28;;;;;;;2.95;2.75;;;;;;;15.15;72.98;98164.37;1739885;81;21025;-72
2022/10/02 09:59:16;;;;;;;4.03;3.50;;;;;;;15.07;73.64;98155.37;1723814;81;21563;-72
2022/10/02 10:02:20;;;;;;;3.35;3.05;;;;;;;15.05;74.18;98156.92;1736870;81;21100;-73
2022/10/02 10:05:02;;;;;;;3.12;2.92;;;;;;;15.15;74.56;98157.69;1710942;82;20935;-73
2022/10/02 10:07:57;;;;;;;2.65;2.40;;;;;;;15.25;74.62;98151.26;1753570;80;21242;-73
2022/10/02 10:10:44;;;;;;;2.62;2.42;;;;;;;15.33;74.34;98154.91;1723779;81;21065;-74
2022/10/02 10:13:52;;;;;;;9.20;4.00;;;;;;;15.49;74.44;98146.20;1745308;82;21089;-74
2022/10/02 10:16:51;;;;;;;3.85;3.37;;;;;;;15.67;74.40;98150.09;1727495;82;21116;-74
2022/10/02 10:20:13;;;;;;;2.65;2.45;;;;;;;15.83;74.28;98140.52;1747316;82;20968;-71
2022/10/02 10:23:30;;;;;;;7.67;2.10;;;;;;;15.95;73.61;98141.34;1720913;82;21883;-72
2022/10/02 10:26:25;;;;;;;1.60;1.50;;;;;;;16.05;73.30;98149.07;1728930;82;21001;-74
2022/10/02 10:29:00;;;;;;;1.90;1.80;;;;;;;16.12;72.61;98143.55;1771408;80;20965;-73
2022/10/02 10:32:01;;;;;;;2.45;1.50;;;;;;;16.11;72.39;98137.92;1768448;80;20951;-73
2022/10/02 10:35:08;;;;;;;1.87;1.75;;;;;;;16.04;72.15;98143.41;1685521;82;20958;-71
2022/10/02 10:38:31;;;;;;;;;;;;;;;15.96;72.40;98146.45;1762859;80;21200;-75
2022/10/02 10:41:29;;;;;;;1.22;1.12;;;;;;;15.91;72.65;98139.64;1717299;80;20123;-73
2022/10/02 10:44:25;;;;;;;1.07;0.95;;;;;;;15.83;72.80;98140.52;1729158;81;21607;-75
2022/10/02 10:47:33;;;;;;;1.45;1.35;;;;;;;15.76;73.08;98132.63;1726007;82;20998;-72
2022/10/02 10:50:28;;;;;;;1.05;0.95;;;;;;;15.75;73.53;98140.36;1708228;82;20985;-72
2022/10/02 10:53:03;;;;;;;2.37;1.30;;;;;;;15.72;75.62;98135.47;1739928;80;21169;-73
2022/10/02 10:55:51;;;;;;;3.55;1.40;;;;;;;15.68;76.18;98130.81;1736522;82;20922;-73
2022/10/02 10:58:30;;;;;;;;;;;;;;;15.66;75.70;98144.47;1695052;81;20990;-74
2022/10/02 11:01:37;;;;;;;1.45;1.35;;;;;;;15.65;75.25;98133.44;1718813;82;20588;-73
2022/10/02 11:04:38;;;;;;;3.12;1.27;;;;;;;15.69;75.08;98129.78;1682569;81;21062;-73
2022/10/02 11:07:33;;;;;;;4.37;1.92;;;;;;;15.72;75.44;98134.13;1691980;82;22129;-74
2022/10/02 11:10:41;;;;;;;1.98;1.70;;;;;;;15.80;75.32;98136.45;1735275;82;21026;-74
2022/10/02 11:13:29;;;;;;;2.12;1.90;;;;;;;15.89;74.92;98133.70;1734886;82;21500;-72
2022/10/02 11:16:15;;;;;;;2.87;1.72;;;;;;;15.96;74.61;98127.67;1742777;80;21014;-73
2022/10/02 11:19:03;;;;;;;2.17;1.90;;;;;;;16.00;74.32;98127.52;1727066;82;20954;-73
2022/10/02 11:22:16;;;;;;;1.82;1.72;;;;;;;16.03;73.88;98121.64;1719193;82;21081;-71
2022/10/02 11:25:00;;;;;;;3.20;1.85;;;;;;;16.05;73.59;98126.79;1689476;83;20943;-72
2022/10/02 11:28:00;;;;;;;3.80;2.15;;;;;;;16.01;73.40;98144.39;1724015;82;21030;-73
2022/10/02 11:31:01;;;;;;;3.87;2.00;;;;;;;15.94;73.36;98148.56;1720051;81;21036;-73
2022/10/02 11:33:41;;;;;;;3.30;2.15;;;;;;;15.87;73.35;98143.86;1721907;81;21524;-72
2022/10/02 11:36:43;;;;;;;2.50;2.30;;;;;;;15.81;73.13;98146.66;1721325;81;21765;-74
2022/10/02 11:39:29;;;;;;;3.62;2.55;;;;;;;15.75;73.01;98147.06;1705864;83;20986;-72
2022/10/02 11:42:32;;;;;;;3.47;2.27;;;;;;;15.74;73.15;98153.50;1719852;82;20956;-73
2022/10/02 11:45:31;;;;;;;2.55;2.33;;;;;;;15.75;73.48;98150.27;1717575;82;21034;-74
2022/10/02 11:48:15;;;;;;;2.75;2.47;;;;;;;15.71;73.35;98154.48;1736438;82;21070;-72
2022/10/02 11:51:08;;;;;;;1.95;1.77;;;;;;;15.69;73.81;98165.45;1736194;82;21163;-75
2022/10/02 11:54:14;;;;;;;3.35;2.47;;;;;;;15.72;74.02;98163.62;1734465;82;21008;-75
2022/10/02 11:57:18;;;;;;;7.25;2.25;;;;;;;15.78;73.86;98159.19;1720943;82;20943;-73
2022/10/02 12:00:06;;;;;;;2.95;2.42;;;;;;;15.90;73.81;98158.11;1727351;82;21005;-73
2022/10/02 12:03:00;;;;;;;3.58;1.85;;;;;;;16.05;73.68;98146.91;1736756;82;20940;-73
2022/10/02 12:05:52;;;;;;;2.65;2.10;;;;;;;16.11;73.10;98147.83;1736733;82;21189;-73
2022/10/02 12:08:36;;;;;;;2.02;1.85;;;;;;;16.08;72.63;98149.13;1730701;82;20899;-72
2022/10/02 12:11:31;;;;;;;2.40;2.20;;;;;;;16.03;72.26;98151.70;1724140;82;21367;-74
2022/10/02 12:14:30;;;;;;;2.25;2.00;;;;;;;15.97;71.98;98156.14;1735654;82;21042;-73
2022/10/02 12:17:22;;;;;;;5.10;1.70;;;;;;;16.05;72.06;98152.27;1730451;82;21007;-73
2022/10/02 12:29:11;;;;;;;2.10;1.90;;;;;;;16.54;70.75;98150.85;1707280;82;20982;-72
2022/10/02 12:32:07;;;;;;;1.65;1.55;;;;;;;16.47;69.98;98145.61;1720605;82;21547;-72
2022/10/02 12:34:50;;;;;;;2.90;2.30;;;;;;;16.39;69.26;98141.14;1719670;82;21148;-73
2022/10/02 12:37:38;;;;;;;1.82;1.72;;;;;;;16.30;68.81;98147.41;1733818;80;20875;-71
2022/10/02 12:40:29;;;;;;;2.00;1.80;;;;;;;16.26;68.98;98146.79;1738604;81;20926;-73
2022/10/02 12:43:54;;;;;;;2.40;1.87;;;;;;;16.22;69.08;98151.80;1761809;81;21520;-73
2022/10/02 12:46:58;;;;;;;2.52;2.00;;;;;;;16.22;69.12;98149.64;1729512;81;20989;-73
2022/10/02 12:50:04;;;;;;;6.47;1.50;;;;;;;16.22;68.45;98137.05;1735643;81;21317;-74
2022/10/02 12:52:57;;;;;;;2.95;1.55;;;;;;;16.16;67.84;98152.78;1726243;81;20959;-75
2022/10/02 12:56:14;;;;;;;2.83;1.32;;;;;;;16.12;67.27;98145.42;1727549;82;21053;-73
2022/10/02 12:59:10;;;;;;;3.80;1.47;;;;;;;16.13;67.04;98141.70;1739472;81;21011;-74
2022/10/02 13:02:17;;;;;;;1.30;1.20;;;;;;;16.24;66.38;98141.64;1699869;81;21526;-73
2022/10/02 13:05:04;;;;;;;3.02;1.42;;;;;;;16.27;66.25;98138.48;1724674;81;21189;-73
2022/10/02 13:08:00;;;;;;;2.72;1.40;;;;;;;16.30;66.51;98143.91;1757459;81;20930;-74
2022/10/02 13:10:50;;;;;;;2.20;1.27;;;;;;;16.29;66.62;98139.61;1727040;81;21025;-74
2022/10/02 13:13:46;;;;;;;4.62;1.70;;;;;;;16.30;66.51;98137.20;1696916;81;21456;-73